»·PEaware :: AAL157 KDFW-KLAS

AAL157 :: KDFW-KLAS

FLIGHT INFORMATION

Flight Status: Arrived
Operator:
American Airlines
More flights by this operator :: More flights under this callsign
Pilot: Bob Slocum (40)
Aircraft: MCDONNELL-DOUGLAS MD-82
(MD82)
More flights by this aircraft type
Origin: KDFW Dallas-Ft Worth Intl
United States
Destination: KLAS McCarran Intl
United States
More flights between these airports :: More routes between these airports
Route: +SLOTT3 GTH KA30W KA33Q PGS TYSSN2 KADDY PRINO
File this flight plan on PilotEdge
Remarks: expecting 25L ILS approach
Altitude:
(Current/Filed)
34,000ft
Speed:
(Current/Filed)
445kts
Departed: 11-Feb-11 03:54 PM
Arrived: 11-Feb-11 06:13 PM
Distance/Time
Traveled:
914nm/2:19
Distance/Time
To Go:
Arrived

Flight Plot

Page will automatically refresh every two minutes.

Flight plan parsing failed; only flown route is shown


Map Options




Map Legend


Flown Route
Filed Route
Departure Airport
Arrival Airport
Navaid (VOR, NDB)
Fix

Horizontal Profiles

Position Reports

Time Latitude Longitude Heading Altitude Ground
Speed
11-Feb-11 15:48 32.879810 -97.047058 270 612ft 0kts
11-Feb-11 15:49 32.879810 -97.047101 269 612ft 3kts
11-Feb-11 15:50 32.879855 -97.050910 357 612ft 0kts
11-Feb-11 15:51 32.915691 -97.054643 180 612ft 0kts
11-Feb-11 15:52 32.912945 -97.054738 178 613ft 81kts
11-Feb-11 15:53 32.860749 -97.058269 184 1509ft 246kts
11-Feb-11 15:54 32.793365 -97.075132 197 2833ft 250kts
11-Feb-11 15:55 32.764970 -97.145348 263 5317ft 262kts
11-Feb-11 15:56 32.770988 -97.231775 272 5384ft 262kts
11-Feb-11 15:57 32.800660 -97.309452 294 6161ft 267kts
11-Feb-11 15:58 32.829479 -97.377123 294 6848ft 268kts
11-Feb-11 16:00 32.897893 -97.538248 293 10403ft 284kts
11-Feb-11 16:01 32.935665 -97.627493 294 12903ft 330kts
11-Feb-11 16:02 32.975726 -97.722384 294 15974ft 344kts
11-Feb-11 16:03 32.995871 -97.832639 280 19180ft 355kts
11-Feb-11 16:04 33.014318 -97.950154 281 20948ft 370kts
11-Feb-11 16:05 33.033344 -98.072631 281 23243ft 387kts
11-Feb-11 16:06 33.053168 -98.201216 281 25559ft 402kts
11-Feb-11 16:07 33.073601 -98.334725 280 27872ft 418kts
11-Feb-11 16:08 33.094628 -98.473326 281 30187ft 430kts
11-Feb-11 16:09 33.115403 -98.612170 280 32463ft 434kts
11-Feb-11 16:10 33.136850 -98.755413 279 34315ft 445kts
11-Feb-11 16:11 33.158322 -98.900237 279 34337ft 441kts
11-Feb-11 16:13 33.197010 -99.164255 278 34336ft 441kts
11-Feb-11 16:14 33.218002 -99.309055 278 34325ft 444kts
11-Feb-11 16:15 33.239108 -99.456187 277 34328ft 454kts
11-Feb-11 16:16 33.270161 -99.598372 305 34346ft 469kts
11-Feb-11 16:17 33.357334 -99.714320 307 34345ft 471kts
11-Feb-11 16:18 33.438342 -99.833519 306 34331ft 466kts
11-Feb-11 16:19 33.519525 -99.952844 305 34331ft 463kts
11-Feb-11 16:20 33.600342 -100.072126 306 34341ft 454kts
11-Feb-11 16:21 33.678131 -100.187274 309 34338ft 451kts
11-Feb-11 16:23 33.814974 -100.439219 293 34344ft 462kts
11-Feb-11 16:24 33.864449 -100.580550 292 34337ft 464kts
11-Feb-11 16:25 33.914353 -100.723519 293 34340ft 464kts
11-Feb-11 16:26 33.964431 -100.867226 293 34340ft 465kts
11-Feb-11 16:27 34.014183 -101.010637 292 34340ft 465kts
11-Feb-11 16:28 34.063937 -101.154706 292 34340ft 465kts
11-Feb-11 16:29 34.113418 -101.298664 293 34302ft 465kts
11-Feb-11 16:30 34.162261 -101.441389 293 34288ft 456kts
11-Feb-11 16:31 34.209682 -101.580704 293 34286ft 450kts
11-Feb-11 16:32 34.256802 -101.719981 293 34288ft 447kts
11-Feb-11 16:33 34.303637 -101.858686 293 34287ft 445kts
11-Feb-11 16:34 34.350219 -101.997256 293 34286ft 444kts
11-Feb-11 16:35 34.396461 -102.135426 293 34286ft 443kts
11-Feb-11 16:36 34.450218 -102.296831 293 34285ft 443kts
11-Feb-11 16:37 34.488438 -102.412101 293 34284ft 443kts
11-Feb-11 16:38 34.534177 -102.550620 292 34286ft 442kts
11-Feb-11 16:39 34.580479 -102.692114 289 34324ft 477kts
11-Feb-11 16:40 34.630235 -102.844312 292 34322ft 489kts
11-Feb-11 16:41 34.679356 -102.995130 294 34322ft 479kts
11-Feb-11 16:42 34.727938 -103.145092 294 34324ft 476kts
11-Feb-11 16:43 34.776050 -103.294360 295 34324ft 473kts
11-Feb-11 16:44 34.823785 -103.443200 295 34324ft 471kts
11-Feb-11 16:45 34.871529 -103.593146 292 34290ft 485kts
11-Feb-11 16:46 34.920341 -103.747044 291 34291ft 486kts
11-Feb-11 16:47 34.968690 -103.900156 291 34291ft 485kts
11-Feb-11 16:48 35.005896 -104.056704 275 34325ft 483kts
11-Feb-11 16:49 35.023729 -104.219113 277 34292ft 482kts
11-Feb-11 16:50 35.040900 -104.380858 277 34292ft 482kts
11-Feb-11 16:51 35.057917 -104.543131 277 34293ft 481kts
11-Feb-11 16:52 35.074321 -104.703275 276 34290ft 481kts
11-Feb-11 16:53 35.090875 -104.865293 276 34291ft 481kts
11-Feb-11 16:54 35.107360 -105.028595 275 34262ft 486kts
11-Feb-11 16:55 35.123644 -105.192552 273 34263ft 487kts
11-Feb-11 16:56 35.139736 -105.356835 273 34264ft 486kts
11-Feb-11 16:57 35.155521 -105.520275 272 34265ft 485kts
11-Feb-11 16:58 35.170808 -105.682496 272 34262ft 484kts
11-Feb-11 16:59 35.186109 -105.845592 271 34263ft 484kts
11-Feb-11 17:00 35.201243 -106.009182 271 34267ft 480kts
11-Feb-11 17:01 35.215015 -106.160919 272 34285ft 427kts
11-Feb-11 17:02 35.227756 -106.302702 276 34281ft 416kts
11-Feb-11 17:03 35.240299 -106.443739 278 34282ft 417kts
11-Feb-11 17:04 35.252520 -106.584305 278 34327ft 429kts
11-Feb-11 17:05 35.263421 -106.710995 279 34326ft 436kts
11-Feb-11 17:06 35.276046 -106.859048 279 34326ft 439kts
11-Feb-11 17:07 35.288593 -107.008479 280 34325ft 441kts
11-Feb-11 17:08 35.300892 -107.157003 280 34325ft 444kts
11-Feb-11 17:09 35.313154 -107.307432 280 34323ft 445kts
11-Feb-11 17:10 35.325263 -107.458315 280 34323ft 445kts
11-Feb-11 17:11 35.336847 -107.607559 280 34326ft 446kts
11-Feb-11 17:12 35.348605 -107.758314 280 34325ft 446kts
11-Feb-11 17:13 35.360299 -107.911337 281 34365ft 455kts
11-Feb-11 17:14 35.371974 -108.066589 281 34365ft 461kts
11-Feb-11 17:15 35.383613 -108.224163 281 34365ft 464kts
11-Feb-11 17:17 35.404350 -108.511843 280 34366ft 467kts
11-Feb-11 17:18 35.415130 -108.667573 277 34367ft 466kts
11-Feb-11 17:21 35.447187 -109.143120 275 34369ft 467kts
11-Feb-11 17:22 35.457478 -109.301863 275 34369ft 467kts
11-Feb-11 17:23 35.467577 -109.460933 275 34363ft 467kts
11-Feb-11 17:24 35.476935 -109.614688 275 34358ft 459kts
11-Feb-11 17:25 35.486460 -109.770196 275 34358ft 453kts
11-Feb-11 17:26 35.495585 -109.923145 274 34358ft 450kts
11-Feb-11 17:27 35.503926 -110.077410 273 34067ft 447kts
11-Feb-11 17:28 35.511311 -110.228557 272 33452ft 443kts
11-Feb-11 17:29 35.518460 -110.379089 272 32838ft 439kts
11-Feb-11 17:30 35.525380 -110.528908 274 32216ft 442kts
11-Feb-11 17:31 35.531940 -110.677872 273 31612ft 443kts
11-Feb-11 17:32 35.538567 -110.829113 273 31004ft 442kts
11-Feb-11 17:33 35.544892 -110.977761 273 30404ft 438kts
11-Feb-11 17:34 35.551051 -111.126830 273 29798ft 434kts
11-Feb-11 17:35 35.556992 -111.275074 273 29189ft 430kts
11-Feb-11 17:36 35.562620 -111.417748 271 28570ft 410kts
11-Feb-11 17:37 35.567879 -111.559090 268 27987ft 428kts
11-Feb-11 17:38 35.573105 -111.707786 269 27416ft 443kts
11-Feb-11 17:39 35.578396 -111.857737 270 26853ft 447kts
11-Feb-11 17:40 35.583600 -112.010702 271 26272ft 447kts
11-Feb-11 17:41 35.588623 -112.162845 272 25731ft 445kts
11-Feb-11 17:42 35.593107 -112.304548 267 25187ft 381kts
11-Feb-11 17:43 35.596762 -112.429153 273 24457ft 362kts
11-Feb-11 17:44 35.600468 -112.553239 276 23691ft 366kts
11-Feb-11 17:45 35.603881 -112.678438 276 22960ft 372kts
11-Feb-11 17:46 35.607358 -112.805384 276 22224ft 374kts
11-Feb-11 17:47 35.610706 -112.932802 276 21486ft 374kts
11-Feb-11 17:48 35.613919 -113.060228 276 20747ft 372kts
11-Feb-11 17:49 35.616961 -113.186127 276 20069ft 369kts
11-Feb-11 17:50 35.619884 -113.312569 276 20056ft 370kts
11-Feb-11 17:51 35.622674 -113.439183 277 19995ft 370kts
11-Feb-11 17:52 35.626809 -113.564141 287 19708ft 364kts
11-Feb-11 17:53 35.644600 -113.683012 285 18131ft 354kts
11-Feb-11 17:54 35.661357 -113.800988 285 16545ft 346kts
11-Feb-11 17:55 35.677696 -113.916297 284 15041ft 337kts
11-Feb-11 17:56 35.693535 -114.029109 284 14308ft 335kts
11-Feb-11 17:57 35.709213 -114.141545 284 13576ft 331kts
11-Feb-11 17:58 35.724369 -114.251241 284 12749ft 301kts
11-Feb-11 18:00 35.780908 -114.425915 315 11997ft 294kts
11-Feb-11 18:01 35.847051 -114.494607 321 11972ft 318kts
11-Feb-11 18:02 35.913115 -114.562351 322 10772ft 303kts
11-Feb-11 18:03 35.975816 -114.626990 323 9578ft 289kts
11-Feb-11 18:04 36.034118 -114.687081 324 8321ft 253kts
11-Feb-11 18:05 36.073923 -114.750942 268 7728ft 255kts
11-Feb-11 18:06 36.073545 -114.835931 273 6969ft 249kts
11-Feb-11 18:07 36.073697 -114.921546 272 5548ft 245kts
11-Feb-11 18:08 36.073712 -114.997946 272 4293ft 197kts
11-Feb-11 18:09 36.073751 -115.058489 270 3284ft 161kts
11-Feb-11 18:10 36.073685 -115.113368 269 2438ft 156kts
11-Feb-11 18:11 36.074217 -115.144595 288 2187ft 33kts
11-Feb-11 18:12 36.079071 -115.147216 335 2187ft 23kts
11-Feb-11 18:14 36.080700 -115.147487 58 2187ft 0kts
11-Feb-11 18:15 36.080700 -115.147487 58 2187ft 0kts
11-Feb-11 18:16 36.080700 -115.147487 58 2187ft 0kts
11-Feb-11 18:17 36.080700 -115.147487 58 2187ft 0kts
11-Feb-11 18:18 36.080700 -115.147487 58 2187ft 0kts
11-Feb-11 18:19 36.080700 -115.147487 58 2187ft 0kts

Navigation Log

Ident Type
Flight plan parsing failed, navigation log unavailable